PWSweather.com
Personal Weather Stations
Station Observations
KMAMEDFI2
Medfield, MA 02052

Medfield, MA 02052

Lat: 42.1900822, Lon: -71.3296889

Elevation: 138

Station Type: Rainwise WS MK-III

http://www.medfieldweather.com

Latest ConditionsUpdated 8:10:00 AM EDT Thursday, Jun 29, 2017
Currently Today's Max Today's Min Today's Average
Temperature 68.2°F20.1°C 68.2°F20.1°C 56.5°F13.6°C 60.7°F15.9°C
Dew Point 59.6°F15.3°C 60.4°F15.8°C 55.6°F13.1°C 58.3°F14.6°C
Winds 2.4 mph WSW3.9 kmh WSW 2.4 mph WSW3.9 kmh WSW - 0.5 mph 0.8 kmh
Wind Gusts 6.5 mph10.5 kmh 6.5 mph10.5 kmh - -
Humidity 74% 98% 74% 92%
Pressure 30.15 in1021.0 mb 30.15 in1021.0 mb 30.09 in1019.0 mb -
Hour Temp Dew Point Humidity Winds Wind Gusts Pressure Precip Precip Rate Daily Precip Total
08:10 AM 68.2°F20.1°C 59.6°F15.3°C 74% 2.4 mph WSW3.9 kmh WSW 6.5 mph10.5 kmh 30.15 in1021.0 mb - 0.00 in0.0 mm 0.00 in0.0 mm
08:00 AM 67.5°F19.7°C 60.4°F15.8°C 78% 0.4 mph W0.6 kmh W 2.6 mph4.2 kmh 30.14 in1020.7 mb - 0.00 in0.0 mm 0.00 in0.0 mm
07:50 AM 66.5°F19.2°C 60.1°F15.6°C 80% 1.2 mph SW1.9 kmh SW 5.2 mph8.4 kmh 30.14 in1020.7 mb - 0.00 in0.0 mm 0.00 in0.0 mm
07:40 AM 65.9°F18.8°C 59.6°F15.3°C 80% 1.7 mph SSW2.7 kmh SSW 2.6 mph4.2 kmh 30.14 in1020.7 mb - 0.00 in0.0 mm 0.00 in0.0 mm
07:30 AM 65.3°F18.5°C 59.6°F15.3°C 82% 0.6 mph W1.0 kmh W 2.6 mph4.2 kmh 30.13 in1020.3 mb - 0.00 in0.0 mm 0.00 in0.0 mm
07:20 AM 63.7°F17.6°C 59.1°F15.1°C 85% 1.0 mph SW1.6 kmh SW -- 30.13 in1020.3 mb - 0.00 in0.0 mm 0.00 in0.0 mm
07:10 AM 63.0°F17.2°C 59.1°F15.1°C 87% 1.0 mph WSW1.6 kmh WSW 1.3 mph2.1 kmh 30.13 in1020.3 mb - 0.00 in0.0 mm 0.00 in0.0 mm
07:00 AM 62.7°F17.1°C 59.1°F15.1°C 88% 0.2 mph N0.3 kmh N 1.3 mph2.1 kmh 30.13 in1020.3 mb - 0.00 in0.0 mm 0.00 in0.0 mm
06:50 AM 62.4°F16.9°C 58.8°F14.9°C 88% 0.3 mph NW0.5 kmh NW 1.3 mph2.1 kmh 30.13 in1020.3 mb - 0.00 in0.0 mm 0.00 in0.0 mm
06:40 AM 62.1°F16.7°C 59.2°F15.1°C 90% 0.3 mph SSW0.5 kmh SSW 2.6 mph4.2 kmh 30.13 in1020.3 mb - 0.00 in0.0 mm 0.00 in0.0 mm
06:30 AM 61.9°F16.6°C 58.9°F14.9°C 90% 0.2 mph WNW0.3 kmh WNW 2.6 mph4.2 kmh 30.13 in1020.3 mb - 0.00 in0.0 mm 0.00 in0.0 mm
06:20 AM 61.6°F16.4°C 58.9°F14.9°C 91% 0.1 mph W0.2 kmh W -- 30.12 in1020.0 mb - 0.00 in0.0 mm 0.00 in0.0 mm
06:10 AM 61.3°F16.3°C 58.9°F14.9°C 92% 0.3 mph E0.5 kmh E 2.6 mph4.2 kmh 30.12 in1020.0 mb - 0.00 in0.0 mm 0.00 in0.0 mm
06:00 AM 60.9°F16.1°C 59.2°F15.1°C 94% 0.1 mph S0.2 kmh S 2.6 mph4.2 kmh 30.11 in1019.6 mb - 0.00 in0.0 mm 0.00 in0.0 mm
05:50 AM 60.6°F15.9°C 59.2°F15.1°C 95% 0.2 mph SSE0.3 kmh SSE -- 30.11 in1019.6 mb - 0.00 in0.0 mm 0.00 in0.0 mm
05:40 AM 60.1°F15.6°C 59.3°F15.2°C 97% 0.6 mph S1.0 kmh S -- 30.11 in1019.6 mb - 0.00 in0.0 mm 0.00 in0.0 mm
05:30 AM 58.9°F14.9°C 58.4°F14.7°C 98% 0.4 mph NE0.6 kmh NE 6.5 mph10.5 kmh 30.11 in1019.6 mb - 0.00 in0.0 mm 0.00 in0.0 mm
05:20 AM 58.4°F14.7°C 57.8°F14.3°C 98% 0.3 mph N0.5 kmh N 1.3 mph2.1 kmh 30.11 in1019.6 mb - 0.00 in0.0 mm 0.00 in0.0 mm
05:10 AM 58.3°F14.6°C 57.7°F14.3°C 98% 0.7 mph N1.1 kmh N 1.3 mph2.1 kmh 30.10 in1019.3 mb - 0.00 in0.0 mm 0.00 in0.0 mm
05:00 AM 58.2°F14.6°C 57.6°F14.2°C 98% Calm Calm 1.3 mph2.1 kmh 30.10 in1019.3 mb - 0.00 in0.0 mm 0.00 in0.0 mm
04:50 AM 58.0°F14.4°C 57.4°F14.1°C 98% Calm Calm -- 30.10 in1019.3 mb - 0.00 in0.0 mm 0.00 in0.0 mm
04:40 AM 58.1°F14.5°C 57.5°F14.2°C 98% Calm Calm -- 30.10 in1019.3 mb - 0.00 in0.0 mm 0.00 in0.0 mm
04:30 AM 58.5°F14.7°C 57.9°F14.4°C 98% Calm Calm -- 30.10 in1019.3 mb - 0.00 in0.0 mm 0.00 in0.0 mm
04:20 AM 58.6°F14.8°C 58.0°F14.4°C 98% Calm Calm -- 30.09 in1019.0 mb - 0.00 in0.0 mm 0.00 in0.0 mm
04:10 AM 58.7°F14.8°C 58.1°F14.5°C 98% Calm Calm -- 30.10 in1019.3 mb - 0.00 in0.0 mm 0.00 in0.0 mm
04:00 AM 58.9°F14.9°C 58.3°F14.6°C 98% Calm Calm -- 30.10 in1019.3 mb - 0.00 in0.0 mm 0.00 in0.0 mm
03:50 AM 58.9°F14.9°C 58.3°F14.6°C 98% Calm Calm -- 30.10 in1019.3 mb - 0.00 in0.0 mm 0.00 in0.0 mm
03:40 AM 59.1°F15.1°C 58.5°F14.7°C 98% 1.7 mph NW2.7 kmh NW 2.6 mph4.2 kmh 30.10 in1019.3 mb - 0.00 in0.0 mm 0.00 in0.0 mm
03:30 AM 58.9°F14.9°C 58.3°F14.6°C 98% 0.4 mph WNW0.6 kmh WNW 2.6 mph4.2 kmh 30.10 in1019.3 mb - 0.00 in0.0 mm 0.00 in0.0 mm
03:20 AM 58.7°F14.8°C 58.1°F14.5°C 98% 1.5 mph NW2.4 kmh NW 2.6 mph4.2 kmh 30.10 in1019.3 mb - 0.00 in0.0 mm 0.00 in0.0 mm
03:10 AM 58.6°F14.8°C 58.0°F14.4°C 98% Calm Calm -- 30.10 in1019.3 mb - 0.00 in0.0 mm 0.00 in0.0 mm
03:00 AM 58.9°F14.9°C 58.1°F14.5°C 97% Calm Calm -- 30.09 in1019.0 mb - 0.00 in0.0 mm 0.00 in0.0 mm
02:50 AM 59.3°F15.2°C 58.4°F14.7°C 97% 0.1 mph NW0.2 kmh NW -- 30.09 in1019.0 mb - 0.00 in0.0 mm 0.00 in0.0 mm
02:40 AM 59.4°F15.2°C 58.3°F14.6°C 96% 0.1 mph W0.2 kmh W 2.6 mph4.2 kmh 30.09 in1019.0 mb - 0.00 in0.0 mm 0.00 in0.0 mm
02:30 AM 59.7°F15.4°C 58.6°F14.8°C 96% Calm Calm -- 30.09 in1019.0 mb - 0.00 in0.0 mm 0.00 in0.0 mm
02:20 AM 59.6°F15.3°C 58.2°F14.6°C 95% Calm Calm -- 30.09 in1019.0 mb - 0.00 in0.0 mm 0.00 in0.0 mm
02:10 AM 59.9°F15.5°C 58.2°F14.6°C 94% 0.3 mph E0.5 kmh E -- 30.09 in1019.0 mb - 0.00 in0.0 mm 0.00 in0.0 mm
02:00 AM 60.1°F15.6°C 58.1°F14.5°C 93% 0.1 mph E0.2 kmh E 1.3 mph2.1 kmh 30.09 in1019.0 mb - 0.00 in0.0 mm 0.00 in0.0 mm
01:50 AM 60.5°F15.8°C 57.9°F14.4°C 91% 0.4 mph NW0.6 kmh NW 2.6 mph4.2 kmh 30.10 in1019.3 mb - 0.00 in0.0 mm 0.00 in0.0 mm
01:40 AM 60.9°F16.1°C 57.9°F14.4°C 90% 0.7 mph SSW1.1 kmh SSW 2.6 mph4.2 kmh 30.09 in1019.0 mb - 0.00 in0.0 mm 0.00 in0.0 mm
01:30 AM 61.2°F16.2°C 58.0°F14.4°C 89% 0.8 mph NE1.3 kmh NE 2.6 mph4.2 kmh 30.10 in1019.3 mb - 0.00 in0.0 mm 0.00 in0.0 mm
01:20 AM 61.7°F16.5°C 57.8°F14.3°C 87% 0.7 mph S1.1 kmh S -- 30.09 in1019.0 mb - 0.00 in0.0 mm 0.00 in0.0 mm
01:10 AM 61.7°F16.5°C 57.8°F14.3°C 87% 0.6 mph E1.0 kmh E 1.3 mph2.1 kmh 30.09 in1019.0 mb - 0.00 in0.0 mm 0.00 in0.0 mm
01:00 AM 61.7°F16.5°C 57.1°F13.9°C 85% 0.1 mph SE0.2 kmh SE 5.2 mph8.4 kmh 30.10 in1019.3 mb - 0.00 in0.0 mm 0.00 in0.0 mm
12:50 AM 61.7°F16.5°C 57.1°F13.9°C 85% 1.7 mph NW2.7 kmh NW 2.6 mph4.2 kmh 30.10 in1019.3 mb - 0.00 in0.0 mm 0.00 in0.0 mm
12:40 AM 61.3°F16.3°C 57.1°F13.9°C 86% 1.2 mph NW1.9 kmh NW 5.2 mph8.4 kmh 30.10 in1019.3 mb - 0.00 in0.0 mm 0.00 in0.0 mm
12:30 AM 60.5°F15.8°C 56.6°F13.7°C 87% 0.8 mph WSW1.3 kmh WSW 2.6 mph4.2 kmh 30.10 in1019.3 mb - 0.00 in0.0 mm 0.00 in0.0 mm
12:20 AM 58.9°F14.9°C 56.6°F13.7°C 92% 0.2 mph S0.3 kmh S 2.6 mph4.2 kmh 30.10 in1019.3 mb - 0.00 in0.0 mm 0.00 in0.0 mm
12:10 AM 57.1°F13.9°C 56.3°F13.5°C 97% 0.9 mph N1.4 kmh N 2.6 mph4.2 kmh 30.09 in1019.0 mb - 0.00 in0.0 mm 0.00 in0.0 mm
12:00 AM 56.5°F13.6°C 55.6°F13.1°C 97% 0.2 mph ESE0.3 kmh ESE 1.3 mph2.1 kmh 30.09 in1019.0 mb - 0.00 in0.0 mm 0.00 in0.0 mm